Time;durP1;ratioP1;P1;durP2;ratioP2;P2;SDS_P1;SDS_P2;PMS_P1;PMS_P2;Temp;Humidity;BMP_temperature;BMP_pressure;BME280_temperature;BME280_humidity;BME280_pressure;Samples;Min_cycle;Max_cycle;Signal;HPM_P1;HPM_P2
2021/12/11 00:00:42;;;;;;;16.50;8.43;;;;;;;3.28;79.00;95247.69;5074068;28;20048;-73
2021/12/11 00:03:14;;;;;;;21.55;13.02;;;;;;;3.28;79.36;95251.06;5073990;28;20330;-73
2021/12/11 00:05:44;;;;;;;2.97;2.05;;;;;;;3.30;79.04;95250.88;5073717;28;20048;-73
2021/12/11 00:08:16;;;;;;;1.65;1.23;;;;;;;3.28;78.90;95258.81;5073689;28;20130;-73
2021/12/11 00:10:48;;;;;;;1.30;1.20;;;;;;;3.27;79.03;95262.34;5073560;28;20048;-73
2021/12/11 00:13:21;;;;;;;1.05;1.05;;;;;;;3.27;79.27;95274.44;5073906;28;20052;-74
2021/12/11 00:15:49;;;;;;;1.20;1.00;;;;;;;3.27;79.09;95277.00;5073285;28;20510;-73
2021/12/11 00:18:19;;;;;;;1.38;1.27;;;;;;;3.27;78.71;95282.16;5073341;28;20064;-73
2021/12/11 00:20:52;;;;;;;3.05;1.50;;;;;;;3.25;79.29;95279.75;5073431;28;20051;-73
2021/12/11 00:23:23;;;;;;;1.20;1.10;;;;;;;3.27;79.59;95290.69;5073298;28;20525;-73
2021/12/11 00:25:52;;;;;;;0.88;0.88;;;;;;;3.28;79.76;95294.88;5073351;28;20460;-73
2021/12/11 00:28:21;;;;;;;2.80;1.38;;;;;;;3.28;79.45;95288.94;5081295;28;20141;-73
2021/12/11 00:30:49;;;;;;;2.17;1.15;;;;;;;3.28;79.54;95297.47;5086629;28;20063;-73
2021/12/11 00:33:21;;;;;;;2.15;1.52;;;;;;;3.28;79.62;95292.31;5086324;28;20045;-73
2021/12/11 00:35:51;;;;;;;1.33;1.10;;;;;;;3.30;79.62;95290.38;5082697;28;20048;-73
2021/12/11 00:38:23;;;;;;;3.17;1.20;;;;;;;3.30;79.18;95290.38;5072661;28;20049;-73
2021/12/11 00:40:55;;;;;;;2.67;1.70;;;;;;;3.32;79.58;95291.97;5073129;28;20044;-73
2021/12/11 00:43:28;;;;;;;0.80;0.80;;;;;;;3.33;79.45;95301.31;5073035;28;20502;-73
2021/12/11 00:45:58;;;;;;;2.90;1.10;;;;;;;3.33;79.18;95309.06;5072771;28;20052;-73
2021/12/11 00:48:28;;;;;;;3.33;1.00;;;;;;;3.34;79.39;95313.22;5072776;28;20091;-73
2021/12/11 00:51:00;;;;;;;1.08;0.90;;;;;;;3.36;79.16;95313.84;5072812;28;20051;-73
2021/12/11 00:53:30;;;;;;;3.65;1.40;;;;;;;3.38;78.96;95317.06;5072963;28;20056;-73
2021/12/11 00:56:03;;;;;;;1.25;1.13;;;;;;;3.38;79.08;95320.44;5072570;28;20075;-73
2021/12/11 00:58:35;;;;;;;1.15;1.05;;;;;;;3.40;79.20;95325.44;5072898;28;20056;-73
2021/12/11 01:01:10;;;;;;;1.70;1.00;;;;;;;3.40;78.50;95340.91;5072607;28;20055;-73
2021/12/11 01:03:42;;;;;;;1.40;1.08;;;;;;;3.39;78.69;95345.28;5072767;28;20506;-73
2021/12/11 01:06:13;;;;;;;2.13;1.08;;;;;;;3.41;79.18;95350.22;5072848;28;20049;-73
2021/12/11 01:08:47;;;;;;;1.50;0.93;;;;;;;3.41;78.55;95355.38;5072535;28;20056;-73
2021/12/11 01:11:19;;;;;;;6.30;1.65;;;;;;;3.40;79.75;95361.53;5072561;28;20048;-73
2021/12/11 01:13:51;;;;;;;0.82;0.73;;;;;;;3.40;79.46;95366.69;5072381;28;20501;-73
2021/12/11 01:16:20;;;;;;;1.38;1.20;;;;;;;3.38;78.92;95371.19;5072189;28;20044;-72
2021/12/11 01:18:56;;;;;;;2.92;1.20;;;;;;;3.35;78.92;95371.56;5072386;28;20049;-73
2021/12/11 01:21:32;;;;;;;5.38;1.35;;;;;;;3.32;79.15;95384.75;5072586;28;20052;-73
2021/12/11 01:24:14;;;;;;;1.40;1.30;;;;;;;3.30;79.53;95384.91;5072495;28;20059;-73
2021/12/11 01:26:49;;;;;;;1.17;1.08;;;;;;;3.29;78.87;95397.00;5071745;28;20510;-74
2021/12/11 01:29:18;;;;;;;2.03;1.10;;;;;;;3.28;79.45;95397.19;5072435;28;20060;-73
2021/12/11 01:31:47;;;;;;;3.15;1.42;;;;;;;3.26;79.35;95405.06;5072165;28;20052;-73
2021/12/11 01:34:14;;;;;;;5.25;1.65;;;;;;;3.25;79.82;95407.81;5072099;28;20056;-73
2021/12/11 01:36:42;;;;;;;1.67;1.30;;;;;;;3.23;79.58;95423.44;5071896;28;20518;-73
2021/12/11 01:39:14;;;;;;;1.38;1.27;;;;;;;3.21;80.01;95435.66;5072332;28;20056;-73
2021/12/11 01:41:42;;;;;;;1.20;1.10;;;;;;;3.20;79.82;95439.22;5072412;28;20136;-73
2021/12/11 01:44:15;;;;;;;2.10;1.30;;;;;;;3.19;79.96;95442.78;5072467;28;20055;-73
2021/12/11 01:46:43;;;;;;;1.38;1.33;;;;;;;3.14;79.80;95452.75;5071614;28;20516;-73
2021/12/11 01:49:15;;;;;;;2.05;1.17;;;;;;;3.12;79.55;95465.00;5072674;28;20110;-73
2021/12/11 01:51:46;;;;;;;1.95;1.30;;;;;;;3.06;79.19;95465.66;5074757;28;20529;-74
2021/12/11 01:54:17;;;;;;;3.22;1.20;;;;;;;3.04;79.30;95465.00;5082065;28;20045;-72
2021/12/11 01:56:48;;;;;;;1.30;1.20;;;;;;;3.01;79.33;95473.06;5100536;28;20075;-72
2021/12/11 01:59:21;;;;;;;0.88;0.88;;;;;;;3.00;79.99;95472.28;5100926;28;20031;-72
2021/12/11 02:01:53;;;;;;;1.00;1.00;;;;;;;3.01;79.96;95480.81;5077412;28;20529;-72
2021/12/11 02:04:22;;;;;;;;;;;;;;;3.05;79.97;95482.88;5077297;28;20048;-73
2021/12/11 02:06:52;;;;;;;0.65;0.60;;;;;;;3.03;79.45;95489.19;5082697;28;19932;-72
2021/12/11 02:09:23;;;;;;;0.60;0.60;;;;;;;3.03;79.43;95496.91;5100165;28;20046;-72
2021/12/11 02:11:53;;;;;;;1.73;0.95;;;;;;;3.04;79.80;95499.31;5086644;28;20051;-73
2021/12/11 02:14:27;;;;;;;0.70;0.70;;;;;;;3.04;79.76;95501.91;5075834;28;20460;-73
2021/12/11 02:16:55;;;;;;;0.60;0.60;;;;;;;3.03;79.59;95505.44;5075482;28;20060;-73
2021/12/11 02:19:30;;;;;;;0.93;0.93;;;;;;;3.05;79.57;95507.84;5076321;28;20055;-73
2021/12/11 02:22:09;;;;;;;1.10;1.10;;;;;;;3.04;80.10;95511.38;5075857;28;20528;-72
2021/12/11 02:24:41;;;;;;;1.00;1.00;;;;;;;3.04;79.78;95521.69;5075943;28;20052;-73
2021/12/11 02:27:12;;;;;;;1.00;1.00;;;;;;;3.05;80.08;95520.72;5075343;28;20056;-73
2021/12/11 02:29:42;;;;;;;0.60;0.60;;;;;;;3.03;79.38;95520.09;5075633;28;20048;-73
2021/12/11 02:32:14;;;;;;;1.08;1.08;;;;;;;2.98;79.24;95530.88;5075481;28;20048;-73
2021/12/11 02:34:47;;;;;;;1.00;1.00;;;;;;;2.96;79.10;95529.44;5075426;28;20060;-72
2021/12/11 02:37:18;;;;;;;;;;;;;;;2.98;79.77;95532.66;5076441;28;20055;-73
2021/12/11 02:39:51;;;;;;;1.02;0.93;;;;;;;2.95;79.79;95533.78;5077475;28;19929;-73
2021/12/11 02:42:23;;;;;;;1.13;1.00;;;;;;;2.94;80.00;95541.66;5076104;28;20044;-73
2021/12/11 02:44:56;;;;;;;1.10;1.10;;;;;;;2.93;79.81;95540.03;5075399;28;20063;-73
2021/12/11 02:47:29;;;;;;;1.10;1.00;;;;;;;2.93;79.25;95547.78;5075570;28;20048;-73
2021/12/11 02:50:06;;;;;;;1.00;1.00;;;;;;;2.92;79.99;95548.75;5075614;28;20055;-73
2021/12/11 02:52:41;;;;;;;1.38;1.27;;;;;;;2.91;80.02;95552.28;5075646;28;20048;-73
2021/12/11 02:55:16;;;;;;;1.33;1.20;;;;;;;2.91;79.97;95553.09;5075093;28;20512;-73
2021/12/11 02:57:47;;;;;;;1.98;1.20;;;;;;;2.90;80.15;95561.78;5074921;28;20048;-73
2021/12/11 03:00:21;;;;;;;1.33;1.23;;;;;;;2.91;80.53;95565.16;5075277;28;20060;-73
2021/12/11 03:03:00;;;;;;;1.38;1.27;;;;;;;2.92;80.03;95564.22;5074598;28;20063;-73
2021/12/11 03:05:36;;;;;;;1.05;1.05;;;;;;;2.89;80.14;95575.63;5075195;28;20048;-72
2021/12/11 03:08:08;;;;;;;1.20;1.20;;;;;;;2.91;80.47;95583.19;5074524;28;20048;-73
2021/12/11 03:10:38;;;;;;;1.37;1.27;;;;;;;2.91;80.30;95580.59;5074988;28;20048;-73
2021/12/11 03:13:06;;;;;;;1.00;1.00;;;;;;;2.92;80.43;95595.13;5074547;28;20513;-73
2021/12/11 03:15:34;;;;;;;1.20;1.20;;;;;;;2.93;80.45;95594.13;5074711;28;20059;-73
2021/12/11 03:18:02;;;;;;;1.02;1.02;;;;;;;2.93;80.23;95596.72;5074756;28;20094;-73
2021/12/11 03:20:31;;;;;;;1.38;1.27;;;;;;;2.92;80.36;95600.25;5074542;28;20551;-73
2021/12/11 03:22:58;;;;;;;1.48;1.38;;;;;;;2.89;79.93;95607.34;5075023;28;20049;-73
2021/12/11 03:25:29;;;;;;;1.55;1.45;;;;;;;2.89;80.23;95609.91;5074712;28;20052;-73
2021/12/11 03:27:57;;;;;;;1.60;1.50;;;;;;;2.90;80.28;95610.72;5074177;28;20460;-73
2021/12/11 03:30:29;;;;;;;1.63;1.52;;;;;;;2.90;80.00;95618.44;5074535;28;20060;-73
2021/12/11 03:33:02;;;;;;;1.38;1.38;;;;;;;2.88;79.90;95626.31;5074276;28;20073;-73
2021/12/11 03:35:29;;;;;;;1.60;1.50;;;;;;;2.87;80.10;95635.03;5074400;28;20056;-73
2021/12/11 03:37:57;;;;;;;1.73;1.60;;;;;;;2.87;79.98;95640.19;5073829;28;20525;-73
2021/12/11 03:40:26;;;;;;;2.63;1.70;;;;;;;2.86;79.77;95643.72;5074203;28;20052;-73
2021/12/11 03:42:56;;;;;;;2.00;1.90;;;;;;;2.86;79.58;95646.31;5074126;28;20398;-73
2021/12/11 03:45:27;;;;;;;1.90;1.80;;;;;;;2.85;79.89;95652.41;5073979;28;20053;-73
2021/12/11 03:47:59;;;;;;;2.03;1.90;;;;;;;2.84;80.03;95655.13;5073878;28;20079;-73
2021/12/11 03:50:29;;;;;;;2.17;2.00;;;;;;;2.84;79.88;95662.84;5074264;28;20059;-73
2021/12/11 03:52:58;;;;;;;2.72;2.28;;;;;;;2.83;79.74;95663.84;5074079;28;20071;-73
2021/12/11 03:55:30;;;;;;;2.00;1.90;;;;;;;2.84;80.13;95673.16;5073960;28;20056;-73
2021/12/11 03:58:00;;;;;;;1.92;1.83;;;;;;;2.83;80.33;95667.22;5073369;28;20464;-73
2021/12/11 04:00:32;;;;;;;2.40;2.20;;;;;;;2.83;80.24;95669.78;5074122;28;20703;-73
2021/12/11 04:03:04;;;;;;;2.22;2.13;;;;;;;2.83;79.87;95674.94;5074100;28;20055;-73
2021/12/11 04:05:33;;;;;;;2.77;2.57;;;;;;;2.81;80.04;95679.44;5073643;28;20052;-73
2021/12/11 04:08:01;;;;;;;2.15;2.05;;;;;;;2.81;80.33;95684.59;5073405;28;20308;-73
2021/12/11 04:10:31;;;;;;;1.95;1.83;;;;;;;2.82;80.26;95693.09;5073960;28;20048;-73
2021/12/11 04:13:01;;;;;;;2.88;2.58;;;;;;;2.82;80.09;95696.50;5072835;28;20041;-73
2021/12/11 04:15:29;;;;;;;2.22;2.08;;;;;;;2.79;79.59;95698.59;5073908;28;20059;-72
2021/12/11 04:17:56;;;;;;;3.00;2.80;;;;;;;2.76;80.06;95706.63;5073260;28;20421;-73
2021/12/11 04:20:27;;;;;;;2.80;2.60;;;;;;;2.78;80.46;95709.88;5073339;28;20118;-73
2021/12/11 04:22:56;;;;;;;1.85;1.75;;;;;;;2.77;80.47;95714.19;5073091;28;20055;-73
2021/12/11 04:25:27;;;;;;;2.63;2.42;;;;;;;2.77;79.72;95718.53;5073666;28;20052;-72
2021/12/11 04:27:57;;;;;;;2.70;2.50;;;;;;;2.75;80.16;95723.84;5092051;22;20097;-75
2021/12/11 04:30:26;;;;;;;2.70;2.50;;;;;;;2.76;80.46;95728.03;5073636;28;20045;-74
2021/12/11 04:32:55;;;;;;;2.38;2.28;;;;;;;2.77;80.01;95736.56;5073417;28;20458;-74
2021/12/11 04:35:27;;;;;;;2.83;2.63;;;;;;;2.75;79.82;95736.72;5073477;28;20052;-74
2021/12/11 04:37:54;;;;;;;2.65;2.45;;;;;;;2.73;79.78;95735.25;5072899;28;20052;-74
2021/12/11 04:40:27;;;;;;;1.98;1.88;;;;;;;2.72;79.83;95738.81;5072901;28;20524;-74
2021/12/11 04:43:02;;;;;;;3.00;2.50;;;;;;;2.72;80.22;95744.75;5072829;28;20418;-74
2021/12/11 04:45:34;;;;;;;3.58;3.17;;;;;;;2.72;79.90;95749.91;5072629;28;20098;-74
2021/12/11 04:48:10;;;;;;;3.05;2.80;;;;;;;2.72;79.83;95765.34;5073062;28;20498;-74
2021/12/11 04:50:45;;;;;;;3.08;2.80;;;;;;;2.74;80.11;95768.59;5072924;28;20057;-74
2021/12/11 04:53:30;;;;;;;3.38;3.05;;;;;;;2.73;80.26;95764.38;5072410;28;20059;-74
2021/12/11 04:56:19;;;;;;;3.38;3.17;;;;;;;2.74;80.45;95768.59;5072289;28;20429;-74
2021/12/11 04:59:08;;;;;;;3.35;2.97;;;;;;;2.76;80.31;95771.81;5072839;28;20044;-74
2021/12/11 05:01:48;;;;;;;3.60;3.28;;;;;;;2.76;80.62;95782.13;5072977;28;20044;-74
2021/12/11 05:07:04;;;;;;;3.25;2.95;;;;;;;2.78;80.54;95792.28;5054956;28;20052;-74
2021/12/11 05:09:37;;;;;;;3.80;3.50;;;;;;;2.76;80.69;95797.56;5072624;28;20052;-73
2021/12/11 05:12:16;;;;;;;3.53;3.22;;;;;;;2.76;80.35;95799.34;5072324;28;20102;-74
2021/12/11 05:14:46;;;;;;;4.65;3.60;;;;;;;2.75;81.20;95811.38;5072237;28;20048;-73
2021/12/11 05:17:15;;;;;;;3.95;3.63;;;;;;;2.75;80.85;95813.97;5071758;28;20422;-74
2021/12/11 05:19:44;;;;;;;4.28;3.88;;;;;;;2.75;80.70;95824.28;5072351;28;20041;-74
2021/12/11 05:22:12;;;;;;;5.25;4.60;;;;;;;2.75;81.01;95818.31;5072334;28;20488;-74
2021/12/11 05:24:42;;;;;;;5.20;4.70;;;;;;;2.77;80.75;95829.28;5071859;28;20048;-74
2021/12/11 05:27:10;;;;;;;5.38;4.80;;;;;;;2.77;80.62;95830.06;5071436;28;20423;-74
2021/12/11 05:29:38;;;;;;;7.68;5.78;;;;;;;2.78;80.66;95842.00;5071745;28;20052;-74
2021/12/11 05:32:12;;;;;;;5.28;4.78;;;;;;;2.78;80.76;95844.59;5072347;28;20048;-74
2021/12/11 05:34:40;;;;;;;5.95;5.35;;;;;;;2.77;80.50;95842.97;5071997;28;20052;-74
2021/12/11 05:37:08;;;;;;;6.57;5.53;;;;;;;2.76;80.84;95856.00;5071611;28;20056;-74
2021/12/11 05:39:36;;;;;;;7.57;6.35;;;;;;;2.75;81.10;95862.91;5071983;28;20057;-74
2021/12/11 05:42:05;;;;;;;7.35;5.53;;;;;;;2.74;81.44;95866.44;5071697;28;20051;-74
2021/12/11 05:44:32;;;;;;;7.75;5.97;;;;;;;2.73;81.56;95877.69;5072004;28;20045;-74
2021/12/11 05:47:00;;;;;;;7.00;5.13;;;;;;;2.73;81.27;95880.28;5071600;28;20052;-73
2021/12/11 05:49:30;;;;;;;5.45;4.85;;;;;;;2.73;81.23;95877.69;5072020;28;20476;-75
2021/12/11 05:51:59;;;;;;;7.25;6.30;;;;;;;2.73;80.83;95890.56;5071882;28;20056;-74
2021/12/11 05:54:28;;;;;;;5.97;5.25;;;;;;;2.71;80.28;95889.09;5071848;28;20052;-73
2021/12/11 05:57:01;;;;;;;7.05;5.88;;;;;;;2.65;80.62;95888.75;5071631;28;20056;-74
2021/12/11 05:59:29;;;;;;;7.05;6.20;;;;;;;2.65;80.30;95895.69;5071845;28;20052;-74
2021/12/11 06:02:00;;;;;;;7.22;6.32;;;;;;;2.63;80.69;95905.31;5071671;28;20052;-74
2021/12/11 06:04:33;;;;;;;6.72;5.90;;;;;;;2.61;81.27;95905.47;5071864;28;20080;-74
2021/12/11 06:07:03;;;;;;;8.13;5.97;;;;;;;2.60;80.35;95905.59;5071413;28;20048;-74
2021/12/11 06:09:30;;;;;;;8.43;7.05;;;;;;;2.53;80.59;95917.47;5072020;28;20318;-74
2021/12/11 06:12:02;;;;;;;11.20;6.97;;;;;;;2.48;80.42;95929.00;5071828;28;20063;-74
2021/12/11 06:14:31;;;;;;;9.20;6.70;;;;;;;2.47;80.80;95934.28;5071570;28;20138;-74
2021/12/11 06:17:02;;;;;;;9.13;6.63;;;;;;;2.47;81.04;95945.44;5071221;28;20049;-74
2021/12/11 06:19:31;;;;;;;8.05;6.70;;;;;;;2.48;81.25;95949.59;5071396;28;20522;-74
2021/12/11 06:21:59;;;;;;;7.95;5.97;;;;;;;2.45;80.42;95957.63;5071654;28;20056;-73
2021/12/11 06:24:29;;;;;;;8.23;6.85;;;;;;;2.45;80.85;95961.97;5071835;28;20045;-74
2021/12/11 06:26:58;;;;;;;8.27;6.75;;;;;;;2.44;80.63;95968.06;5071088;28;20048;-74
2021/12/11 06:29:26;;;;;;;9.35;7.35;;;;;;;2.43;81.23;95967.25;5071503;28;20052;-74
2021/12/11 06:31:56;;;;;;;10.23;6.72;;;;;;;2.44;81.53;95971.44;5071545;28;20052;-74
2021/12/11 06:34:24;;;;;;;9.98;7.75;;;;;;;2.44;81.26;95988.66;5071197;28;20048;-74
2021/12/11 06:36:53;;;;;;;10.63;8.00;;;;;;;2.45;81.37;95991.09;5072349;28;20045;-74
2021/12/11 06:39:24;;;;;;;9.73;7.82;;;;;;;2.45;81.18;96006.53;5075147;28;20049;-74
2021/12/11 06:41:54;;;;;;;11.18;8.20;;;;;;;2.47;81.54;96009.78;5075057;28;20055;-73
2021/12/11 06:44:27;;;;;;;11.07;8.20;;;;;;;2.47;80.88;96017.50;5075004;28;20055;-74
2021/12/11 06:46:57;;;;;;;12.70;8.75;;;;;;;2.49;81.50;96022.50;5074678;28;20049;-74
2021/12/11 06:49:27;;;;;;;12.68;8.45;;;;;;;2.50;81.42;96033.63;5075338;28;20056;-74
2021/12/11 06:51:56;;;;;;;11.57;8.65;;;;;;;2.51;81.51;96045.53;5075155;28;20044;-74
2021/12/11 06:54:25;;;;;;;11.48;8.38;;;;;;;2.50;80.80;96046.50;5074674;28;20045;-74
2021/12/11 06:56:53;;;;;;;12.13;8.50;;;;;;;2.50;81.16;96055.00;5074447;28;20048;-74
2021/12/11 06:59:21;;;;;;;11.02;8.15;;;;;;;2.53;81.14;96053.91;5075070;28;20056;-74
2021/12/11 07:01:49;;;;;;;12.48;9.15;;;;;;;2.54;81.54;96060.69;5074982;28;20406;-74
2021/12/11 07:04:17;;;;;;;11.88;8.85;;;;;;;2.54;81.25;96069.22;5074965;28;20429;-75
2021/12/11 07:06:49;;;;;;;11.95;9.07;;;;;;;2.54;81.63;96065.84;5074372;28;20051;-74
2021/12/11 07:09:19;;;;;;;11.23;8.88;;;;;;;2.53;81.20;96069.34;5074486;28;20048;-73
2021/12/11 07:11:48;;;;;;;10.43;8.77;;;;;;;2.53;81.34;96084.81;5074297;28;20059;-74
2021/12/11 07:14:17;;;;;;;11.80;8.70;;;;;;;2.52;81.13;96088.34;5075352;28;20041;-74
2021/12/11 07:16:46;;;;;;;11.18;8.80;;;;;;;2.52;80.99;96090.94;5074802;28;20430;-74
2021/12/11 07:19:15;;;;;;;11.60;8.77;;;;;;;2.54;80.93;96096.75;5074618;28;20044;-74
2021/12/11 07:21:43;;;;;;;12.15;8.82;;;;;;;2.51;81.04;96104.72;5074398;28;20049;-74
2021/12/11 07:24:14;;;;;;;14.80;9.52;;;;;;;2.50;81.34;96108.28;5074441;28;20042;-73
2021/12/11 07:26:43;;;;;;;13.20;9.00;;;;;;;2.45;81.21;96111.28;5074533;28;20041;-74
2021/12/11 07:29:14;;;;;;;11.35;8.27;;;;;;;2.43;81.61;96126.88;5074123;28;20056;-75
2021/12/11 07:31:44;;;;;;;10.93;8.48;;;;;;;2.41;81.03;96123.63;5074366;28;20045;-74
2021/12/11 07:34:13;;;;;;;11.82;8.95;;;;;;;2.43;81.57;96131.22;5074563;28;20045;-74
2021/12/11 07:36:41;;;;;;;12.80;8.73;;;;;;;2.42;81.61;96129.56;5074157;28;20056;-73
2021/12/11 07:39:12;;;;;;;15.93;9.43;;;;;;;2.41;81.26;96136.50;5074604;28;20048;-74
2021/12/11 07:41:40;;;;;;;13.93;9.82;;;;;;;2.39;81.42;96135.81;5074272;28;20056;-74
2021/12/11 07:44:09;;;;;;;18.08;10.73;;;;;;;2.42;81.62;96150.16;5074178;28;20082;-74
2021/12/11 07:46:36;;;;;;;16.15;10.93;;;;;;;2.44;81.53;96155.97;5074582;28;20059;-74
2021/12/11 07:49:05;;;;;;;13.20;10.23;;;;;;;2.42;81.40;96158.69;5073888;28;20094;-74
2021/12/11 07:51:35;;;;;;;13.73;9.93;;;;;;;2.42;81.25;96169.00;5074558;28;20052;-74
2021/12/11 07:54:04;;;;;;;12.05;9.38;;;;;;;2.43;81.02;96175.78;5074000;28;20044;-74
2021/12/11 07:56:32;;;;;;;15.13;10.98;;;;;;;2.42;81.23;96171.56;5073732;28;20066;-74
2021/12/11 07:59:03;;;;;;;13.35;9.82;;;;;;;2.42;81.34;96176.72;5074403;28;20444;-74
2021/12/11 08:01:34;;;;;;;14.75;9.48;;;;;;;2.41;81.16;96185.41;5073814;28;20060;-75
2021/12/11 08:04:04;;;;;;;13.37;9.63;;;;;;;2.42;81.00;96188.78;5074320;28;20490;-74
2021/12/11 08:06:34;;;;;;;12.98;9.05;;;;;;;2.39;81.25;96201.94;5073734;28;20052;-74
2021/12/11 08:09:03;;;;;;;12.07;8.52;;;;;;;2.36;80.96;96204.78;5073481;28;20049;-74
2021/12/11 08:11:30;;;;;;;53.20;34.40;;;;;;;2.34;81.06;96216.97;5073461;28;20048;-74
2021/12/11 08:14:00;;;;;;;43.25;26.83;;;;;;;2.34;81.57;96215.25;5073173;28;20041;-74
2021/12/11 08:16:34;;;;;;;18.00;11.73;;;;;;;2.36;81.49;96221.06;5073276;28;20060;-73
2021/12/11 08:19:06;;;;;;;14.43;10.48;;;;;;;2.38;81.83;96224.28;5073189;28;20056;-74
2021/12/11 08:21:33;;;;;;;14.05;9.55;;;;;;;2.42;81.94;96235.13;5073219;28;20052;-74
2021/12/11 08:24:05;;;;;;;12.40;9.68;;;;;;;2.42;81.51;96235.91;5073446;28;20453;-74
2021/12/11 08:26:35;;;;;;;12.52;9.40;;;;;;;2.44;81.76;96236.59;5074164;28;20115;-74
2021/12/11 08:29:10;;;;;;;14.45;10.32;;;;;;;2.47;81.38;96251.78;5075167;28;20056;-74
2021/12/11 08:31:39;;;;;;;15.10;10.80;;;;;;;2.52;81.58;96255.69;5075466;28;20056;-74
2021/12/11 08:34:08;;;;;;;15.00;10.43;;;;;;;2.52;81.41;96266.81;5073415;28;20056;-74
2021/12/11 08:36:36;;;;;;;12.90;9.55;;;;;;;2.54;81.25;96269.25;5072929;28;20051;-74
2021/12/11 08:39:06;;;;;;;14.48;10.68;;;;;;;2.56;81.45;96270.72;5072732;28;20098;-73
2021/12/11 08:41:35;;;;;;;15.27;11.02;;;;;;;2.55;81.32;96271.66;5073083;28;20052;-74
2021/12/11 08:44:09;;;;;;;13.00;10.13;;;;;;;2.55;80.61;96278.56;5072929;28;20099;-74
2021/12/11 08:46:42;;;;;;;14.27;10.07;;;;;;;2.53;80.36;96290.78;5072694;28;20063;-74
2021/12/11 08:49:18;;;;;;;13.95;10.45;;;;;;;2.51;80.85;96287.53;5072742;28;20053;-74
2021/12/11 08:51:51;;;;;;;75.43;43.28;;;;;;;2.52;80.84;96294.31;5073527;28;20048;-74
2021/12/11 08:54:19;;;;;;;17.60;11.30;;;;;;;2.51;80.80;96308.13;5072909;28;20048;-75
2021/12/11 08:56:48;;;;;;;14.60;9.93;;;;;;;2.50;80.50;96302.16;5073209;28;20052;-74
2021/12/11 08:59:18;;;;;;;15.93;10.50;;;;;;;2.52;80.86;96309.78;5073183;28;20052;-74
2021/12/11 09:01:52;;;;;;;14.57;10.35;;;;;;;2.52;81.20;96314.91;5073382;28;20052;-74
2021/12/11 09:04:26;;;;;;;13.23;10.00;;;;;;;2.55;80.88;96324.94;5072904;28;20048;-74
2021/12/11 09:06:57;;;;;;;12.68;9.48;;;;;;;2.55;80.58;96328.31;5072756;28;20493;-74
2021/12/11 09:09:28;;;;;;;14.27;9.75;;;;;;;2.56;81.20;96334.25;5073208;28;20112;-74
2021/12/11 09:11:59;;;;;;;12.25;9.63;;;;;;;2.55;81.17;96345.53;5073527;28;20067;-74
2021/12/11 09:14:30;;;;;;;26.77;16.77;;;;;;;2.56;81.11;96347.13;5073466;28;20072;-76
2021/12/11 09:17:01;;;;;;;54.17;33.78;;;;;;;2.59;80.84;96357.97;5073074;28;20052;-74
2021/12/11 09:19:35;;;;;;;17.73;11.40;;;;;;;2.61;81.27;96360.44;5073468;28;20056;-74
2021/12/11 09:22:09;;;;;;;12.45;9.50;;;;;;;2.63;81.13;96368.84;5074166;28;20055;-74
2021/12/11 09:24:40;;;;;;;14.55;10.35;;;;;;;2.68;80.79;96379.53;5080795;28;20418;-74
2021/12/11 09:27:13;;;;;;;12.40;9.45;;;;;;;2.70;81.06;96385.34;5085225;28;20056;-74
2021/12/11 09:29:45;;;;;;;12.35;9.07;;;;;;;2.74;81.19;96385.91;5084637;28;20052;-75
2021/12/11 09:32:17;;;;;;;11.25;9.00;;;;;;;2.75;80.92;96387.50;5082486;28;20048;-75
2021/12/11 09:34:50;;;;;;;13.50;9.23;;;;;;;2.78;80.93;96392.41;5078531;28;20051;-74
2021/12/11 09:37:19;;;;;;;13.80;10.23;;;;;;;2.79;81.18;96399.16;5081330;28;20056;-73
2021/12/11 09:39:50;;;;;;;13.38;8.95;;;;;;;2.78;80.54;96406.09;5094054;28;20052;-74
2021/12/11 09:42:17;;;;;;;12.10;9.35;;;;;;;2.78;80.37;96407.84;5090878;28;20074;-74
2021/12/11 09:44:49;;;;;;;13.07;9.73;;;;;;;2.76;80.39;96405.41;5090175;28;20052;-73
2021/12/11 09:47:20;;;;;;;14.80;10.90;;;;;;;2.76;80.60;96420.88;5079057;28;20048;-74
2021/12/11 09:49:53;;;;;;;15.00;10.82;;;;;;;2.77;80.74;96419.91;5074912;28;20098;-73
2021/12/11 09:52:24;;;;;;;15.23;11.15;;;;;;;2.76;80.84;96420.88;5074789;28;20063;-74
2021/12/11 09:54:55;;;;;;;14.32;10.52;;;;;;;2.76;81.01;96426.00;5072886;28;20041;-73
2021/12/11 09:57:25;;;;;;;15.85;11.48;;;;;;;2.75;80.72;96432.09;5072406;28;20060;-74
2021/12/11 09:59:59;;;;;;;18.27;13.27;;;;;;;2.76;80.79;96425.22;5072764;28;20051;-74
2021/12/11 10:02:30;;;;;;;19.50;13.93;;;;;;;2.78;80.98;96437.00;5072312;28;20052;-73
2021/12/11 10:05:03;;;;;;;18.88;13.35;;;;;;;2.79;80.99;96430.06;5072134;28;20074;-74
2021/12/11 10:07:36;;;;;;;23.10;14.45;;;;;;;2.80;80.62;96437.69;5071737;28;20057;-74
2021/12/11 10:10:14;;;;;;;20.92;14.68;;;;;;;2.77;80.92;96435.34;5072083;28;20060;-75
2021/12/11 10:12:46;;;;;;;20.50;14.30;;;;;;;2.73;80.52;96439.16;5074527;28;20103;-75
2021/12/11 10:15:19;;;;;;;30.17;20.30;;;;;;;2.72;80.53;96447.84;5076027;28;20451;-75
2021/12/11 10:17:49;;;;;;;;;;;;;;;2.75;80.94;96450.13;5075975;28;20052;-75
2021/12/11 10:20:22;;;;;;;29.45;18.20;;;;;;;2.74;80.83;96448.53;5076185;28;19927;-75
2021/12/11 10:22:51;;;;;;;;;;;;;;;2.76;80.97;96462.06;5076308;28;20056;-75
2021/12/11 10:25:22;;;;;;;20.73;14.93;;;;;;;2.74;80.20;96458.81;5075539;28;19920;-75
2021/12/11 10:27:50;;;;;;;21.80;13.93;;;;;;;2.72;80.74;96465.88;5093603;22;20432;-73
2021/12/11 10:30:23;;;;;;;22.80;15.68;;;;;;;2.71;80.71;96469.38;5076847;28;20052;-73
2021/12/11 10:32:51;;;;;;;23.63;15.98;;;;;;;2.74;80.97;96476.03;5075909;28;20127;-73
2021/12/11 10:35:21;;;;;;;21.00;15.23;;;;;;;2.75;80.92;96475.88;5076064;28;20055;-73
2021/12/11 10:37:49;;;;;;;19.60;13.95;;;;;;;2.76;80.82;96487.84;5075369;28;20055;-73
2021/12/11 10:40:26;;;;;;;19.23;14.02;;;;;;;2.76;80.52;96477.53;5075873;28;20058;-73
2021/12/11 10:42:57;;;;;;;24.92;15.30;;;;;;;2.79;80.52;96481.59;5075700;28;20075;-73
2021/12/11 10:45:28;;;;;;;23.80;16.63;;;;;;;2.81;80.46;96484.84;5075836;28;20073;-73
2021/12/11 10:47:59;;;;;;;20.10;14.57;;;;;;;2.81;80.50;96495.97;5075420;28;20048;-73
2021/12/11 10:50:40;;;;;;;21.45;14.98;;;;;;;2.82;80.54;96500.19;5075646;28;20510;-73
2021/12/11 10:53:10;;;;;;;68.47;41.22;;;;;;;2.83;80.29;96499.22;5075514;28;20509;-73
2021/12/11 10:55:40;;;;;;;44.80;26.42;;;;;;;2.84;80.41;96495.72;5075474;28;20045;-73
2021/12/11 10:58:16;;;;;;;33.63;21.55;;;;;;;2.87;81.06;96500.56;5075404;28;20113;-73
2021/12/11 11:00:50;;;;;;;24.67;16.38;;;;;;;2.87;80.52;96505.72;5089853;28;20048;-74
2021/12/11 11:03:19;;;;;;;24.67;15.48;;;;;;;2.88;80.55;96501.38;5093649;28;20059;-73
2021/12/11 11:05:46;;;;;;;23.77;15.85;;;;;;;2.91;80.58;96510.59;5093616;28;20146;-73
2021/12/11 11:08:15;;;;;;;22.42;16.35;;;;;;;2.93;80.87;96511.28;5087214;28;20049;-73
2021/12/11 11:10:46;;;;;;;23.75;17.02;;;;;;;2.96;80.77;96518.75;5075602;28;20060;-73
2021/12/11 11:13:15;;;;;;;23.48;15.75;;;;;;;2.97;80.76;96520.38;5075636;28;20063;-73
2021/12/11 11:15:45;;;;;;;25.33;16.33;;;;;;;2.97;80.50;96525.53;5075227;28;20052;-73
2021/12/11 11:18:15;;;;;;;21.55;15.05;;;;;;;2.98;80.38;96527.16;5075227;28;20053;-73
2021/12/11 11:20:48;;;;;;;22.25;15.05;;;;;;;2.98;80.40;96530.53;5074995;28;20055;-73
2021/12/11 11:23:15;;;;;;;20.67;14.80;;;;;;;2.99;80.22;96541.66;5074536;28;20063;-73
2021/12/11 11:25:47;;;;;;;18.00;14.00;;;;;;;2.97;79.45;96540.97;5074480;28;20048;-73
2021/12/11 11:28:19;;;;;;;19.92;15.00;;;;;;;2.98;80.03;96550.34;5074739;28;20060;-73
2021/12/11 11:30:51;;;;;;;18.48;14.80;;;;;;;3.01;80.29;96557.81;5074747;28;20053;-74
2021/12/11 11:33:19;;;;;;;23.52;17.35;;;;;;;3.03;80.24;96555.91;5074818;28;20048;-73
2021/12/11 11:35:50;;;;;;;31.48;20.13;;;;;;;3.06;80.59;96563.34;5074306;28;20131;-73
2021/12/11 11:38:20;;;;;;;30.85;21.38;;;;;;;3.08;80.37;96562.28;5074625;28;20497;-73
2021/12/11 11:40:56;;;;;;;27.58;20.27;;;;;;;3.09;80.13;96568.25;5074827;28;20059;-73
2021/12/11 11:43:25;;;;;;;24.92;17.17;;;;;;;3.12;80.28;96575.69;5074658;28;20060;-73
2021/12/11 11:45:54;;;;;;;26.48;16.33;;;;;;;3.14;80.12;96573.00;5074335;28;20429;-73
2021/12/11 11:48:25;;;;;;;22.40;16.38;;;;;;;3.14;79.88;96583.31;5074493;28;20059;-73
2021/12/11 11:51:13;;;;;;;21.73;15.50;;;;;;;3.14;80.14;96591.03;5075132;28;20084;-73
2021/12/11 11:53:42;;;;;;;20.95;15.68;;;;;;;3.13;79.90;96589.41;5075026;28;20447;-73
2021/12/11 11:56:13;;;;;;;20.33;14.45;;;;;;;3.14;80.44;96603.94;5073973;28;20044;-73